Sedro Woolley, Washington
Current Conditions -  °F | °C
As of 12:53 AM on Sunday 26 Oct 2014 (Local Time) from KBLI Reporting Station
Broken Clouds Broken Clouds  
Wind Chill: 48°   Ceiling: 4200
Heat Index: 48°   Visibility: 10mi
Dew Point: 44°   Wind: 0mph
Humidity: 86%   Direction: NA
Pressure: 29.69"   Gusts: NA
Location:  48.54°N, 122.19°W
Report Text: KBLI 260753Z AUTO 00000KT 10SM SCT020 SCT026 BKN042 09/07 A2969 RMK AO2 SLP060 T00890067 401670089
Loading
Personal Weather Stations






























Interactive Weather Map New forecast layout! Learn more

10-Day Weather Forecast

Advertisements
Track Severe Weather on mobile